Terminal Aerodrome Forecast
Issued by NWS

Home | Current Version | Previous Version | Text Only | Print | Product List | Glossary On
Versions: 1 2 3 4 5 6 7 8 9 10 11 12 13 14 15 16 17 18 19 20
000
FTUS46 KMTR 281120
TAFSFO
TAF
KSFO 281120Z 2812/2918 29010KT P6SM SCT005 SCT160
     FM282100 29015G20KT P6SM FEW010 SCT160
     FM290400 29010KT P6SM FEW010 SCT120
     FM290900 28006KT P6SM SCT010 SCT120=

USA.gov is the U.S. government's official web portal to all federal, state and local government web resources and services.